sensor_id;sensor_type;location;lat;lon;timestamp;P1;durP1;ratioP1;P2;durP2;ratioP2
44995;SDS011;30729;49.486;10.792;2023-06-14T00:01:45;7.05;;;4.05;;
44995;SDS011;30729;49.486;10.792;2023-06-14T00:04:11;7.90;;;4.20;;
44995;SDS011;30729;49.486;10.792;2023-06-14T00:06:36;6.65;;;3.80;;
44995;SDS011;30729;49.486;10.792;2023-06-14T00:09:03;7.85;;;3.75;;
44995;SDS011;30729;49.486;10.792;2023-06-14T00:11:28;8.85;;;3.78;;
44995;SDS011;30729;49.486;10.792;2023-06-14T00:13:54;7.57;;;4.03;;
44995;SDS011;30729;49.486;10.792;2023-06-14T00:16:19;6.30;;;3.55;;
44995;SDS011;30729;49.486;10.792;2023-06-14T00:18:46;7.18;;;4.00;;
44995;SDS011;30729;49.486;10.792;2023-06-14T00:21:11;8.10;;;4.30;;
44995;SDS011;30729;49.486;10.792;2023-06-14T00:23:37;7.90;;;3.97;;
44995;SDS011;30729;49.486;10.792;2023-06-14T00:26:02;8.17;;;4.30;;
44995;SDS011;30729;49.486;10.792;2023-06-14T00:28:27;6.60;;;3.83;;
44995;SDS011;30729;49.486;10.792;2023-06-14T00:30:52;8.15;;;3.90;;
44995;SDS011;30729;49.486;10.792;2023-06-14T00:33:17;9.13;;;4.00;;
44995;SDS011;30729;49.486;10.792;2023-06-14T00:35:42;7.75;;;4.28;;
44995;SDS011;30729;49.486;10.792;2023-06-14T00:38:07;7.32;;;3.53;;
44995;SDS011;30729;49.486;10.792;2023-06-14T00:40:33;8.63;;;3.95;;
44995;SDS011;30729;49.486;10.792;2023-06-14T00:42:59;7.05;;;3.95;;
44995;SDS011;30729;49.486;10.792;2023-06-14T00:45:25;5.97;;;3.38;;
44995;SDS011;30729;49.486;10.792;2023-06-14T00:47:50;7.80;;;3.97;;
44995;SDS011;30729;49.486;10.792;2023-06-14T00:50:17;7.85;;;4.13;;
44995;SDS011;30729;49.486;10.792;2023-06-14T00:52:43;8.85;;;4.20;;
44995;SDS011;30729;49.486;10.792;2023-06-14T00:55:08;8.43;;;4.20;;
44995;SDS011;30729;49.486;10.792;2023-06-14T00:57:34;7.72;;;4.20;;
44995;SDS011;30729;49.486;10.792;2023-06-14T01:00:02;9.27;;;4.03;;
44995;SDS011;30729;49.486;10.792;2023-06-14T01:02:29;7.25;;;4.00;;
44995;SDS011;30729;49.486;10.792;2023-06-14T01:04:55;8.68;;;4.35;;
44995;SDS011;30729;49.486;10.792;2023-06-14T01:07:33;6.57;;;3.67;;
44995;SDS011;30729;49.486;10.792;2023-06-14T01:12:44;7.85;;;4.43;;
44995;SDS011;30729;49.486;10.792;2023-06-14T01:15:13;7.95;;;4.18;;
44995;SDS011;30729;49.486;10.792;2023-06-14T01:17:38;6.88;;;3.70;;
44995;SDS011;30729;49.486;10.792;2023-06-14T01:20:08;7.53;;;4.43;;
44995;SDS011;30729;49.486;10.792;2023-06-14T01:22:37;8.05;;;4.10;;
44995;SDS011;30729;49.486;10.792;2023-06-14T01:25:02;9.50;;;4.40;;
44995;SDS011;30729;49.486;10.792;2023-06-14T01:27:27;6.20;;;3.80;;
44995;SDS011;30729;49.486;10.792;2023-06-14T01:29:57;8.80;;;4.00;;
44995;SDS011;30729;49.486;10.792;2023-06-14T01:32:24;8.95;;;4.03;;
44995;SDS011;30729;49.486;10.792;2023-06-14T01:34:51;5.93;;;3.80;;
44995;SDS011;30729;49.486;10.792;2023-06-14T01:37:16;6.97;;;3.90;;
44995;SDS011;30729;49.486;10.792;2023-06-14T01:39:42;8.70;;;4.63;;
44995;SDS011;30729;49.486;10.792;2023-06-14T01:42:08;7.80;;;4.40;;
44995;SDS011;30729;49.486;10.792;2023-06-14T01:44:33;8.18;;;4.45;;
44995;SDS011;30729;49.486;10.792;2023-06-14T01:46:58;7.57;;;4.27;;
44995;SDS011;30729;49.486;10.792;2023-06-14T01:49:23;7.63;;;4.10;;
44995;SDS011;30729;49.486;10.792;2023-06-14T01:51:49;7.30;;;4.35;;
44995;SDS011;30729;49.486;10.792;2023-06-14T01:54:14;8.75;;;4.25;;
44995;SDS011;30729;49.486;10.792;2023-06-14T01:56:39;8.18;;;4.60;;
44995;SDS011;30729;49.486;10.792;2023-06-14T01:59:04;6.65;;;4.03;;
44995;SDS011;30729;49.486;10.792;2023-06-14T02:01:30;7.20;;;4.20;;
44995;SDS011;30729;49.486;10.792;2023-06-14T02:03:55;7.28;;;4.07;;
44995;SDS011;30729;49.486;10.792;2023-06-14T02:06:20;7.93;;;4.20;;
44995;SDS011;30729;49.486;10.792;2023-06-14T02:08:45;7.53;;;4.18;;
44995;SDS011;30729;49.486;10.792;2023-06-14T02:11:11;7.90;;;4.30;;
44995;SDS011;30729;49.486;10.792;2023-06-14T02:13:36;8.95;;;4.85;;
44995;SDS011;30729;49.486;10.792;2023-06-14T02:16:01;8.35;;;4.53;;
44995;SDS011;30729;49.486;10.792;2023-06-14T02:18:26;8.20;;;4.23;;
44995;SDS011;30729;49.486;10.792;2023-06-14T02:20:52;7.20;;;4.13;;
44995;SDS011;30729;49.486;10.792;2023-06-14T02:23:17;8.63;;;4.67;;
44995;SDS011;30729;49.486;10.792;2023-06-14T02:25:42;6.78;;;4.25;;
44995;SDS011;30729;49.486;10.792;2023-06-14T02:28:09;10.52;;;4.57;;
44995;SDS011;30729;49.486;10.792;2023-06-14T02:30:34;7.78;;;4.22;;
44995;SDS011;30729;49.486;10.792;2023-06-14T02:33:00;8.70;;;4.22;;
44995;SDS011;30729;49.486;10.792;2023-06-14T02:35:25;6.97;;;3.97;;
44995;SDS011;30729;49.486;10.792;2023-06-14T02:37:53;7.30;;;4.07;;
44995;SDS011;30729;49.486;10.792;2023-06-14T02:40:18;8.95;;;3.90;;
44995;SDS011;30729;49.486;10.792;2023-06-14T02:42:44;7.70;;;4.55;;
44995;SDS011;30729;49.486;10.792;2023-06-14T02:45:09;9.27;;;4.38;;
44995;SDS011;30729;49.486;10.792;2023-06-14T02:47:34;6.43;;;4.07;;
44995;SDS011;30729;49.486;10.792;2023-06-14T02:50:00;9.02;;;4.70;;
44995;SDS011;30729;49.486;10.792;2023-06-14T02:52:25;10.05;;;5.13;;
44995;SDS011;30729;49.486;10.792;2023-06-14T02:54:50;6.45;;;3.88;;
44995;SDS011;30729;49.486;10.792;2023-06-14T02:57:15;8.00;;;4.20;;
44995;SDS011;30729;49.486;10.792;2023-06-14T02:59:40;8.23;;;4.43;;
44995;SDS011;30729;49.486;10.792;2023-06-14T03:02:06;7.07;;;4.35;;
44995;SDS011;30729;49.486;10.792;2023-06-14T03:04:31;9.40;;;4.60;;
44995;SDS011;30729;49.486;10.792;2023-06-14T03:07:01;8.70;;;5.07;;
44995;SDS011;30729;49.486;10.792;2023-06-14T03:09:27;8.05;;;4.05;;
44995;SDS011;30729;49.486;10.792;2023-06-14T03:11:53;8.85;;;4.47;;
44995;SDS011;30729;49.486;10.792;2023-06-14T03:14:18;7.80;;;4.57;;
44995;SDS011;30729;49.486;10.792;2023-06-14T03:16:44;11.57;;;4.63;;
44995;SDS011;30729;49.486;10.792;2023-06-14T03:19:10;7.72;;;4.72;;
44995;SDS011;30729;49.486;10.792;2023-06-14T03:21:36;6.35;;;3.92;;
44995;SDS011;30729;49.486;10.792;2023-06-14T03:24:01;10.38;;;4.68;;
44995;SDS011;30729;49.486;10.792;2023-06-14T03:26:27;8.05;;;4.10;;
44995;SDS011;30729;49.486;10.792;2023-06-14T03:28:53;6.63;;;4.20;;
44995;SDS011;30729;49.486;10.792;2023-06-14T03:31:18;7.25;;;4.47;;
44995;SDS011;30729;49.486;10.792;2023-06-14T03:33:44;7.85;;;4.30;;
44995;SDS011;30729;49.486;10.792;2023-06-14T03:36:09;6.80;;;4.15;;
44995;SDS011;30729;49.486;10.792;2023-06-14T03:38:34;7.10;;;4.10;;
44995;SDS011;30729;49.486;10.792;2023-06-14T03:41:00;7.15;;;3.90;;
44995;SDS011;30729;49.486;10.792;2023-06-14T03:43:25;13.27;;;4.60;;
44995;SDS011;30729;49.486;10.792;2023-06-14T03:45:50;7.38;;;3.63;;
44995;SDS011;30729;49.486;10.792;2023-06-14T03:48:15;6.75;;;3.47;;
44995;SDS011;30729;49.486;10.792;2023-06-14T03:50:41;6.43;;;4.47;;
44995;SDS011;30729;49.486;10.792;2023-06-14T03:53:07;6.63;;;3.75;;
44995;SDS011;30729;49.486;10.792;2023-06-14T03:55:33;6.70;;;4.03;;
44995;SDS011;30729;49.486;10.792;2023-06-14T03:57:58;6.40;;;3.88;;
44995;SDS011;30729;49.486;10.792;2023-06-14T04:00:23;8.43;;;4.50;;
44995;SDS011;30729;49.486;10.792;2023-06-14T04:02:48;8.47;;;3.87;;
44995;SDS011;30729;49.486;10.792;2023-06-14T04:05:14;8.57;;;4.00;;
44995;SDS011;30729;49.486;10.792;2023-06-14T04:07:41;6.88;;;3.67;;
44995;SDS011;30729;49.486;10.792;2023-06-14T04:10:09;7.63;;;4.03;;
44995;SDS011;30729;49.486;10.792;2023-06-14T04:12:34;9.95;;;4.07;;
44995;SDS011;30729;49.486;10.792;2023-06-14T04:15:00;8.20;;;3.73;;
44995;SDS011;30729;49.486;10.792;2023-06-14T04:17:25;7.13;;;3.75;;
44995;SDS011;30729;49.486;10.792;2023-06-14T04:19:51;6.25;;;3.78;;
44995;SDS011;30729;49.486;10.792;2023-06-14T04:22:16;9.75;;;3.88;;
44995;SDS011;30729;49.486;10.792;2023-06-14T04:24:41;7.75;;;3.97;;
44995;SDS011;30729;49.486;10.792;2023-06-14T04:27:07;10.13;;;4.03;;
44995;SDS011;30729;49.486;10.792;2023-06-14T04:29:32;6.50;;;3.20;;
44995;SDS011;30729;49.486;10.792;2023-06-14T04:31:58;7.38;;;4.05;;
44995;SDS011;30729;49.486;10.792;2023-06-14T04:34:26;7.60;;;4.20;;
44995;SDS011;30729;49.486;10.792;2023-06-14T04:36:55;7.43;;;3.80;;
44995;SDS011;30729;49.486;10.792;2023-06-14T04:39:20;7.88;;;4.32;;
44995;SDS011;30729;49.486;10.792;2023-06-14T04:41:46;6.82;;;3.95;;
44995;SDS011;30729;49.486;10.792;2023-06-14T04:44:11;7.25;;;3.60;;
44995;SDS011;30729;49.486;10.792;2023-06-14T04:46:37;9.80;;;4.30;;
44995;SDS011;30729;49.486;10.792;2023-06-14T04:49:10;7.25;;;4.07;;
44995;SDS011;30729;49.486;10.792;2023-06-14T04:51:40;7.53;;;3.67;;
44995;SDS011;30729;49.486;10.792;2023-06-14T04:54:06;9.52;;;3.63;;
44995;SDS011;30729;49.486;10.792;2023-06-14T04:56:34;7.05;;;4.13;;
44995;SDS011;30729;49.486;10.792;2023-06-14T04:59:00;7.85;;;3.80;;
44995;SDS011;30729;49.486;10.792;2023-06-14T05:01:25;7.07;;;4.10;;
44995;SDS011;30729;49.486;10.792;2023-06-14T05:03:50;6.97;;;3.50;;
44995;SDS011;30729;49.486;10.792;2023-06-14T05:06:15;7.70;;;4.03;;
44995;SDS011;30729;49.486;10.792;2023-06-14T05:08:43;6.82;;;4.22;;
44995;SDS011;30729;49.486;10.792;2023-06-14T05:11:08;7.45;;;4.30;;
44995;SDS011;30729;49.486;10.792;2023-06-14T05:13:33;7.85;;;4.35;;
44995;SDS011;30729;49.486;10.792;2023-06-14T05:15:59;6.43;;;3.80;;
44995;SDS011;30729;49.486;10.792;2023-06-14T05:18:25;7.40;;;4.25;;
44995;SDS011;30729;49.486;10.792;2023-06-14T05:20:50;5.85;;;3.65;;
44995;SDS011;30729;49.486;10.792;2023-06-14T05:23:15;7.32;;;3.75;;
44995;SDS011;30729;49.486;10.792;2023-06-14T05:25:42;7.43;;;3.80;;
44995;SDS011;30729;49.486;10.792;2023-06-14T05:28:07;7.30;;;3.78;;
44995;SDS011;30729;49.486;10.792;2023-06-14T05:30:32;6.57;;;3.83;;
44995;SDS011;30729;49.486;10.792;2023-06-14T05:32:58;7.00;;;3.63;;
44995;SDS011;30729;49.486;10.792;2023-06-14T05:35:23;8.18;;;3.60;;
44995;SDS011;30729;49.486;10.792;2023-06-14T05:37:51;7.07;;;3.97;;
44995;SDS011;30729;49.486;10.792;2023-06-14T05:40:16;5.88;;;3.80;;
44995;SDS011;30729;49.486;10.792;2023-06-14T05:42:42;6.35;;;3.97;;
44995;SDS011;30729;49.486;10.792;2023-06-14T05:45:07;6.53;;;3.45;;
44995;SDS011;30729;49.486;10.792;2023-06-14T05:47:33;7.53;;;3.70;;
44995;SDS011;30729;49.486;10.792;2023-06-14T05:49:58;7.43;;;3.75;;
44995;SDS011;30729;49.486;10.792;2023-06-14T05:52:23;7.53;;;4.20;;
44995;SDS011;30729;49.486;10.792;2023-06-14T05:54:48;6.85;;;3.58;;
44995;SDS011;30729;49.486;10.792;2023-06-14T05:57:14;6.85;;;3.95;;
44995;SDS011;30729;49.486;10.792;2023-06-14T05:59:39;6.68;;;3.80;;
44995;SDS011;30729;49.486;10.792;2023-06-14T06:02:05;6.65;;;3.97;;
44995;SDS011;30729;49.486;10.792;2023-06-14T06:04:30;8.15;;;4.03;;
44995;SDS011;30729;49.486;10.792;2023-06-14T06:06:55;6.65;;;3.47;;
44995;SDS011;30729;49.486;10.792;2023-06-14T06:09:21;8.03;;;3.63;;
44995;SDS011;30729;49.486;10.792;2023-06-14T06:11:46;7.25;;;3.95;;
44995;SDS011;30729;49.486;10.792;2023-06-14T06:14:11;6.93;;;4.22;;
44995;SDS011;30729;49.486;10.792;2023-06-14T06:16:36;10.10;;;4.00;;
44995;SDS011;30729;49.486;10.792;2023-06-14T06:19:01;6.88;;;3.75;;
44995;SDS011;30729;49.486;10.792;2023-06-14T06:21:26;8.55;;;4.53;;
44995;SDS011;30729;49.486;10.792;2023-06-14T06:23:51;8.10;;;4.30;;
44995;SDS011;30729;49.486;10.792;2023-06-14T06:26:16;9.55;;;4.07;;
44995;SDS011;30729;49.486;10.792;2023-06-14T06:28:42;7.38;;;4.00;;
44995;SDS011;30729;49.486;10.792;2023-06-14T06:31:07;7.30;;;3.92;;
44995;SDS011;30729;49.486;10.792;2023-06-14T06:33:32;7.20;;;4.10;;
44995;SDS011;30729;49.486;10.792;2023-06-14T06:35:57;9.40;;;4.00;;
44995;SDS011;30729;49.486;10.792;2023-06-14T06:38:22;7.93;;;4.03;;
44995;SDS011;30729;49.486;10.792;2023-06-14T06:40:47;8.15;;;3.70;;
44995;SDS011;30729;49.486;10.792;2023-06-14T06:43:13;7.03;;;3.83;;
44995;SDS011;30729;49.486;10.792;2023-06-14T06:45:38;5.38;;;3.20;;
44995;SDS011;30729;49.486;10.792;2023-06-14T06:48:04;8.05;;;4.07;;
44995;SDS011;30729;49.486;10.792;2023-06-14T06:50:29;5.80;;;3.50;;
44995;SDS011;30729;49.486;10.792;2023-06-14T06:52:55;7.72;;;3.70;;
44995;SDS011;30729;49.486;10.792;2023-06-14T06:55:20;7.33;;;4.03;;
44995;SDS011;30729;49.486;10.792;2023-06-14T06:57:45;6.47;;;3.80;;
44995;SDS011;30729;49.486;10.792;2023-06-14T07:00:11;8.32;;;4.03;;
44995;SDS011;30729;49.486;10.792;2023-06-14T07:02:37;7.88;;;3.72;;
44995;SDS011;30729;49.486;10.792;2023-06-14T07:05:02;6.50;;;3.78;;
44995;SDS011;30729;49.486;10.792;2023-06-14T07:07:27;6.65;;;3.95;;
44995;SDS011;30729;49.486;10.792;2023-06-14T07:09:53;7.73;;;3.80;;
44995;SDS011;30729;49.486;10.792;2023-06-14T07:12:18;5.97;;;3.43;;
44995;SDS011;30729;49.486;10.792;2023-06-14T07:14:43;5.65;;;3.42;;
44995;SDS011;30729;49.486;10.792;2023-06-14T07:17:08;6.68;;;3.67;;
44995;SDS011;30729;49.486;10.792;2023-06-14T07:19:33;6.05;;;3.33;;
44995;SDS011;30729;49.486;10.792;2023-06-14T07:21:58;5.70;;;3.17;;
44995;SDS011;30729;49.486;10.792;2023-06-14T07:24:24;6.07;;;2.93;;
44995;SDS011;30729;49.486;10.792;2023-06-14T07:26:49;5.47;;;3.13;;
44995;SDS011;30729;49.486;10.792;2023-06-14T07:29:14;6.05;;;3.10;;
44995;SDS011;30729;49.486;10.792;2023-06-14T07:31:41;5.45;;;2.85;;
44995;SDS011;30729;49.486;10.792;2023-06-14T07:34:06;5.47;;;2.97;;
44995;SDS011;30729;49.486;10.792;2023-06-14T07:36:31;7.10;;;3.10;;
44995;SDS011;30729;49.486;10.792;2023-06-14T07:38:56;5.28;;;3.20;;
44995;SDS011;30729;49.486;10.792;2023-06-14T07:41:22;5.60;;;2.90;;
44995;SDS011;30729;49.486;10.792;2023-06-14T07:43:47;7.60;;;3.60;;
44995;SDS011;30729;49.486;10.792;2023-06-14T07:46:12;6.35;;;3.67;;
44995;SDS011;30729;49.486;10.792;2023-06-14T07:48:37;7.53;;;3.90;;
44995;SDS011;30729;49.486;10.792;2023-06-14T07:51:02;6.20;;;3.30;;
44995;SDS011;30729;49.486;10.792;2023-06-14T07:53:28;7.15;;;3.15;;
44995;SDS011;30729;49.486;10.792;2023-06-14T07:55:53;7.35;;;3.30;;
44995;SDS011;30729;49.486;10.792;2023-06-14T07:58:18;9.18;;;3.40;;
44995;SDS011;30729;49.486;10.792;2023-06-14T08:00:43;6.20;;;3.03;;
44995;SDS011;30729;49.486;10.792;2023-06-14T08:03:09;7.00;;;3.10;;
44995;SDS011;30729;49.486;10.792;2023-06-14T08:05:34;6.57;;;3.55;;
44995;SDS011;30729;49.486;10.792;2023-06-14T08:08:00;10.30;;;3.53;;
44995;SDS011;30729;49.486;10.792;2023-06-14T08:10:25;5.50;;;3.33;;
44995;SDS011;30729;49.486;10.792;2023-06-14T08:12:50;6.55;;;3.20;;
44995;SDS011;30729;49.486;10.792;2023-06-14T08:15:15;6.97;;;3.30;;
44995;SDS011;30729;49.486;10.792;2023-06-14T08:17:42;6.60;;;3.33;;
44995;SDS011;30729;49.486;10.792;2023-06-14T08:20:07;5.85;;;3.28;;
44995;SDS011;30729;49.486;10.792;2023-06-14T08:22:33;7.53;;;3.30;;
44995;SDS011;30729;49.486;10.792;2023-06-14T08:24:59;6.25;;;2.72;;
44995;SDS011;30729;49.486;10.792;2023-06-14T08:27:24;7.53;;;2.90;;
44995;SDS011;30729;49.486;10.792;2023-06-14T08:29:50;6.05;;;3.25;;
44995;SDS011;30729;49.486;10.792;2023-06-14T08:32:15;5.53;;;3.10;;
44995;SDS011;30729;49.486;10.792;2023-06-14T08:34:40;4.63;;;2.67;;
44995;SDS011;30729;49.486;10.792;2023-06-14T08:37:05;6.17;;;3.20;;
44995;SDS011;30729;49.486;10.792;2023-06-14T08:39:31;4.75;;;2.75;;
44995;SDS011;30729;49.486;10.792;2023-06-14T08:41:56;6.50;;;3.30;;
44995;SDS011;30729;49.486;10.792;2023-06-14T08:44:22;7.50;;;3.53;;
44995;SDS011;30729;49.486;10.792;2023-06-14T08:46:47;5.60;;;3.27;;
44995;SDS011;30729;49.486;10.792;2023-06-14T08:49:12;5.35;;;2.83;;
44995;SDS011;30729;49.486;10.792;2023-06-14T08:51:39;8.95;;;3.20;;
44995;SDS011;30729;49.486;10.792;2023-06-14T08:54:05;5.60;;;2.95;;
44995;SDS011;30729;49.486;10.792;2023-06-14T08:56:31;5.68;;;3.40;;
44995;SDS011;30729;49.486;10.792;2023-06-14T08:58:58;6.93;;;3.25;;
44995;SDS011;30729;49.486;10.792;2023-06-14T09:01:28;8.80;;;3.47;;
44995;SDS011;30729;49.486;10.792;2023-06-14T09:03:53;7.13;;;3.30;;
44995;SDS011;30729;49.486;10.792;2023-06-14T09:06:20;5.55;;;3.05;;
44995;SDS011;30729;49.486;10.792;2023-06-14T09:08:48;7.43;;;2.90;;
44995;SDS011;30729;49.486;10.792;2023-06-14T09:11:14;5.95;;;3.05;;
44995;SDS011;30729;49.486;10.792;2023-06-14T09:13:40;5.70;;;3.03;;
44995;SDS011;30729;49.486;10.792;2023-06-14T09:16:06;6.70;;;2.88;;
44995;SDS011;30729;49.486;10.792;2023-06-14T09:18:34;5.15;;;2.58;;
44995;SDS011;30729;49.486;10.792;2023-06-14T09:20:59;7.57;;;3.05;;
44995;SDS011;30729;49.486;10.792;2023-06-14T09:23:25;7.37;;;3.00;;
44995;SDS011;30729;49.486;10.792;2023-06-14T09:25:50;5.93;;;2.92;;
44995;SDS011;30729;49.486;10.792;2023-06-14T09:28:15;7.17;;;3.63;;
44995;SDS011;30729;49.486;10.792;2023-06-14T09:30:40;6.50;;;3.40;;
44995;SDS011;30729;49.486;10.792;2023-06-14T09:33:05;7.10;;;3.20;;
44995;SDS011;30729;49.486;10.792;2023-06-14T09:35:34;4.32;;;2.88;;
44995;SDS011;30729;49.486;10.792;2023-06-14T09:37:59;5.05;;;3.05;;
44995;SDS011;30729;49.486;10.792;2023-06-14T09:40:25;7.50;;;2.95;;
44995;SDS011;30729;49.486;10.792;2023-06-14T09:42:50;5.90;;;3.25;;
44995;SDS011;30729;49.486;10.792;2023-06-14T09:45:16;4.97;;;2.80;;
44995;SDS011;30729;49.486;10.792;2023-06-14T09:47:46;5.20;;;2.97;;
44995;SDS011;30729;49.486;10.792;2023-06-14T09:50:12;5.70;;;2.90;;
44995;SDS011;30729;49.486;10.792;2023-06-14T09:52:37;7.10;;;3.10;;
44995;SDS011;30729;49.486;10.792;2023-06-14T09:55:02;8.52;;;3.22;;
44995;SDS011;30729;49.486;10.792;2023-06-14T09:57:33;4.75;;;3.08;;
44995;SDS011;30729;49.486;10.792;2023-06-14T09:59:59;5.70;;;3.13;;
44995;SDS011;30729;49.486;10.792;2023-06-14T10:02:29;5.40;;;2.55;;
44995;SDS011;30729;49.486;10.792;2023-06-14T10:05:03;8.82;;;3.28;;
44995;SDS011;30729;49.486;10.792;2023-06-14T10:07:32;6.03;;;2.72;;
44995;SDS011;30729;49.486;10.792;2023-06-14T10:09:57;6.28;;;3.33;;
44995;SDS011;30729;49.486;10.792;2023-06-14T10:12:22;6.57;;;2.88;;
44995;SDS011;30729;49.486;10.792;2023-06-14T10:14:49;6.68;;;3.47;;
44995;SDS011;30729;49.486;10.792;2023-06-14T10:17:17;6.72;;;3.00;;
44995;SDS011;30729;49.486;10.792;2023-06-14T10:19:48;6.40;;;2.90;;
44995;SDS011;30729;49.486;10.792;2023-06-14T10:22:18;6.63;;;3.15;;
44995;SDS011;30729;49.486;10.792;2023-06-14T10:24:44;5.00;;;2.90;;
44995;SDS011;30729;49.486;10.792;2023-06-14T10:27:10;5.43;;;2.80;;
44995;SDS011;30729;49.486;10.792;2023-06-14T10:32:18;6.05;;;3.00;;
44995;SDS011;30729;49.486;10.792;2023-06-14T10:34:44;5.90;;;3.05;;
44995;SDS011;30729;49.486;10.792;2023-06-14T10:37:13;6.28;;;2.72;;
44995;SDS011;30729;49.486;10.792;2023-06-14T10:39:41;5.30;;;2.90;;
44995;SDS011;30729;49.486;10.792;2023-06-14T10:42:07;5.05;;;3.08;;
44995;SDS011;30729;49.486;10.792;2023-06-14T10:44:33;9.48;;;4.47;;
44995;SDS011;30729;49.486;10.792;2023-06-14T10:47:05;6.25;;;3.10;;
44995;SDS011;30729;49.486;10.792;2023-06-14T10:49:38;5.75;;;2.90;;
44995;SDS011;30729;49.486;10.792;2023-06-14T10:52:14;6.65;;;3.40;;
44995;SDS011;30729;49.486;10.792;2023-06-14T10:55:00;6.57;;;2.90;;
44995;SDS011;30729;49.486;10.792;2023-06-14T10:57:26;6.70;;;2.83;;
44995;SDS011;30729;49.486;10.792;2023-06-14T10:59:51;5.20;;;2.80;;
44995;SDS011;30729;49.486;10.792;2023-06-14T11:04:48;7.30;;;3.17;;
44995;SDS011;30729;49.486;10.792;2023-06-14T11:07:41;5.72;;;2.70;;
44995;SDS011;30729;49.486;10.792;2023-06-14T11:10:32;5.40;;;2.77;;
44995;SDS011;30729;49.486;10.792;2023-06-14T11:13:01;4.35;;;2.88;;
44995;SDS011;30729;49.486;10.792;2023-06-14T11:15:30;5.35;;;2.97;;
44995;SDS011;30729;49.486;10.792;2023-06-14T11:18:01;5.38;;;3.10;;
44995;SDS011;30729;49.486;10.792;2023-06-14T11:20:29;5.10;;;2.60;;
44995;SDS011;30729;49.486;10.792;2023-06-14T11:22:54;6.13;;;2.78;;
44995;SDS011;30729;49.486;10.792;2023-06-14T11:25:19;5.23;;;2.73;;
44995;SDS011;30729;49.486;10.792;2023-06-14T11:27:45;6.28;;;3.15;;
44995;SDS011;30729;49.486;10.792;2023-06-14T11:30:10;5.03;;;2.53;;
44995;SDS011;30729;49.486;10.792;2023-06-14T11:32:36;5.30;;;2.60;;
44995;SDS011;30729;49.486;10.792;2023-06-14T11:35:04;5.68;;;2.90;;
44995;SDS011;30729;49.486;10.792;2023-06-14T11:37:30;4.72;;;2.50;;
44995;SDS011;30729;49.486;10.792;2023-06-14T11:39:56;6.32;;;2.80;;
44995;SDS011;30729;49.486;10.792;2023-06-14T11:42:22;4.15;;;2.45;;
44995;SDS011;30729;49.486;10.792;2023-06-14T11:44:47;4.97;;;2.65;;
44995;SDS011;30729;49.486;10.792;2023-06-14T11:47:12;5.00;;;2.58;;
44995;SDS011;30729;49.486;10.792;2023-06-14T11:49:37;5.05;;;2.80;;
44995;SDS011;30729;49.486;10.792;2023-06-14T11:52:03;5.55;;;2.72;;
44995;SDS011;30729;49.486;10.792;2023-06-14T11:54:28;5.68;;;3.03;;
44995;SDS011;30729;49.486;10.792;2023-06-14T11:56:53;6.25;;;3.33;;
44995;SDS011;30729;49.486;10.792;2023-06-14T11:59:18;5.17;;;3.17;;
44995;SDS011;30729;49.486;10.792;2023-06-14T12:01:45;7.00;;;3.03;;
44995;SDS011;30729;49.486;10.792;2023-06-14T12:04:10;7.25;;;3.67;;
44995;SDS011;30729;49.486;10.792;2023-06-14T12:06:35;6.65;;;2.78;;
44995;SDS011;30729;49.486;10.792;2023-06-14T12:09:04;6.22;;;3.25;;
44995;SDS011;30729;49.486;10.792;2023-06-14T12:11:32;4.55;;;2.65;;
44995;SDS011;30729;49.486;10.792;2023-06-14T12:13:58;5.80;;;2.90;;
44995;SDS011;30729;49.486;10.792;2023-06-14T12:16:29;6.60;;;3.10;;
44995;SDS011;30729;49.486;10.792;2023-06-14T12:18:55;3.35;;;2.33;;
44995;SDS011;30729;49.486;10.792;2023-06-14T12:21:22;5.90;;;3.17;;
44995;SDS011;30729;49.486;10.792;2023-06-14T12:23:48;6.72;;;2.97;;
44995;SDS011;30729;49.486;10.792;2023-06-14T12:26:14;6.57;;;3.03;;
44995;SDS011;30729;49.486;10.792;2023-06-14T12:28:40;5.53;;;2.83;;
44995;SDS011;30729;49.486;10.792;2023-06-14T12:31:07;6.20;;;3.10;;
44995;SDS011;30729;49.486;10.792;2023-06-14T12:33:32;4.90;;;2.55;;
44995;SDS011;30729;49.486;10.792;2023-06-14T12:35:57;5.57;;;2.80;;
44995;SDS011;30729;49.486;10.792;2023-06-14T12:38:24;6.50;;;2.63;;
44995;SDS011;30729;49.486;10.792;2023-06-14T12:40:49;5.55;;;2.60;;
44995;SDS011;30729;49.486;10.792;2023-06-14T12:43:14;5.22;;;2.88;;
44995;SDS011;30729;49.486;10.792;2023-06-14T12:45:39;6.80;;;2.60;;
44995;SDS011;30729;49.486;10.792;2023-06-14T12:48:04;6.05;;;3.13;;
44995;SDS011;30729;49.486;10.792;2023-06-14T12:50:30;7.97;;;2.78;;
44995;SDS011;30729;49.486;10.792;2023-06-14T12:52:55;6.85;;;2.60;;
44995;SDS011;30729;49.486;10.792;2023-06-14T12:55:20;7.18;;;2.83;;
44995;SDS011;30729;49.486;10.792;2023-06-14T12:57:45;4.93;;;2.53;;
44995;SDS011;30729;49.486;10.792;2023-06-14T13:00:10;7.50;;;3.20;;
44995;SDS011;30729;49.486;10.792;2023-06-14T13:02:37;5.28;;;2.90;;
44995;SDS011;30729;49.486;10.792;2023-06-14T13:05:03;6.97;;;2.65;;
44995;SDS011;30729;49.486;10.792;2023-06-14T13:07:29;6.13;;;2.92;;
44995;SDS011;30729;49.486;10.792;2023-06-14T13:09:54;7.50;;;2.55;;
44995;SDS011;30729;49.486;10.792;2023-06-14T13:12:19;6.40;;;2.58;;
44995;SDS011;30729;49.486;10.792;2023-06-14T13:14:45;5.60;;;2.72;;
44995;SDS011;30729;49.486;10.792;2023-06-14T13:17:10;4.68;;;2.25;;
44995;SDS011;30729;49.486;10.792;2023-06-14T13:19:36;5.60;;;2.72;;
44995;SDS011;30729;49.486;10.792;2023-06-14T13:22:01;9.60;;;4.18;;
44995;SDS011;30729;49.486;10.792;2023-06-14T13:24:26;4.85;;;2.60;;
44995;SDS011;30729;49.486;10.792;2023-06-14T13:26:53;5.60;;;2.95;;
44995;SDS011;30729;49.486;10.792;2023-06-14T13:29:18;9.00;;;2.97;;
44995;SDS011;30729;49.486;10.792;2023-06-14T13:31:43;5.30;;;2.63;;
44995;SDS011;30729;49.486;10.792;2023-06-14T13:34:08;7.25;;;2.88;;
44995;SDS011;30729;49.486;10.792;2023-06-14T13:36:33;4.13;;;2.20;;
44995;SDS011;30729;49.486;10.792;2023-06-14T13:38:59;7.32;;;3.00;;
44995;SDS011;30729;49.486;10.792;2023-06-14T13:41:25;4.82;;;2.58;;
44995;SDS011;30729;49.486;10.792;2023-06-14T13:43:56;5.63;;;2.97;;
44995;SDS011;30729;49.486;10.792;2023-06-14T13:46:21;7.57;;;2.50;;
44995;SDS011;30729;49.486;10.792;2023-06-14T13:48:46;6.67;;;2.57;;
44995;SDS011;30729;49.486;10.792;2023-06-14T13:51:12;5.47;;;2.70;;
44995;SDS011;30729;49.486;10.792;2023-06-14T13:53:37;5.95;;;2.90;;
44995;SDS011;30729;49.486;10.792;2023-06-14T13:56:03;8.05;;;3.60;;
44995;SDS011;30729;49.486;10.792;2023-06-14T13:58:28;5.72;;;3.15;;
44995;SDS011;30729;49.486;10.792;2023-06-14T14:00:54;6.90;;;2.70;;
44995;SDS011;30729;49.486;10.792;2023-06-14T14:03:19;6.72;;;2.63;;
44995;SDS011;30729;49.486;10.792;2023-06-14T14:05:44;6.80;;;2.85;;
44995;SDS011;30729;49.486;10.792;2023-06-14T14:08:10;5.70;;;2.85;;
44995;SDS011;30729;49.486;10.792;2023-06-14T14:10:35;4.35;;;2.53;;
44995;SDS011;30729;49.486;10.792;2023-06-14T14:13:00;4.65;;;2.67;;
44995;SDS011;30729;49.486;10.792;2023-06-14T14:15:26;5.43;;;2.45;;
44995;SDS011;30729;49.486;10.792;2023-06-14T14:17:51;5.32;;;3.00;;
44995;SDS011;30729;49.486;10.792;2023-06-14T14:20:19;6.03;;;2.35;;
44995;SDS011;30729;49.486;10.792;2023-06-14T14:22:44;5.00;;;2.42;;
44995;SDS011;30729;49.486;10.792;2023-06-14T14:25:09;4.93;;;2.58;;
44995;SDS011;30729;49.486;10.792;2023-06-14T14:27:35;5.68;;;3.05;;
44995;SDS011;30729;49.486;10.792;2023-06-14T14:30:01;4.55;;;2.53;;
44995;SDS011;30729;49.486;10.792;2023-06-14T14:32:26;5.15;;;2.60;;
44995;SDS011;30729;49.486;10.792;2023-06-14T14:34:51;4.88;;;2.67;;